Time;durP1;ratioP1;P1;durP2;ratioP2;P2;SDS_P1;SDS_P2;PMS_P1;PMS_P2;Temp;Humidity;BMP_temperature;BMP_pressure;BME280_temperature;BME280_humidity;BME280_pressure;Samples;Min_cycle;Max_cycle;Signal;HPM_P1;HPM_P2
2021/01/09 00:01:54;;;;;;;46.03;26.57;;;77.60;2227.20;;;;;;4979054;28;20034;-89
2021/01/09 00:04:21;;;;;;;47.63;28.63;;;77.70;2227.20;;;;;;4996226;28;20491;-89
2021/01/09 00:06:47;;;;;;;49.00;28.80;;;102.40;2227.20;;;;;;4979324;28;20041;-88
2021/01/09 00:09:12;;;;;;;50.07;30.10;;;77.70;2227.20;;;;;;4980070;28;20046;-89
2021/01/09 00:11:38;;;;;;;52.97;32.63;;;77.70;2227.20;;;;;;4978925;28;20076;-87
2021/01/09 00:14:04;;;;;;;53.63;30.10;;;102.40;2227.20;;;;;;4978724;28;20054;-88
2021/01/09 00:16:30;;;;;;;39.10;23.70;;;77.70;2227.20;;;;;;4979082;28;20116;-88
2021/01/09 00:18:55;;;;;;;38.90;24.43;;;77.70;2227.20;;;;;;4978104;28;20034;-87
2021/01/09 00:21:21;;;;;;;58.07;33.33;;;77.70;2227.20;;;;;;4978386;28;20500;-89
2021/01/09 00:23:47;;;;;;;46.43;29.60;;;77.70;2227.20;;;;;;4979454;28;20072;-88
2021/01/09 00:26:12;;;;;;;49.80;30.67;;;77.70;2227.20;;;;;;4978524;28;20034;-89
2021/01/09 00:28:38;;;;;;;50.90;28.73;;;77.70;2227.20;;;;;;4978597;28;20030;-88
2021/01/09 00:31:07;;;;;;;46.13;26.83;;;77.60;2227.20;;;;;;4978995;28;20030;-88
2021/01/09 00:33:33;;;;;;;49.07;28.70;;;77.70;2227.20;;;;;;4978644;28;20030;-89
2021/01/09 00:35:59;;;;;;;47.07;28.17;;;77.50;2227.20;;;;;;4979342;28;20498;-87
2021/01/09 00:38:26;;;;;;;55.20;31.73;;;77.60;2227.20;;;;;;4979199;28;20362;-89
2021/01/09 00:40:51;;;;;;;52.03;30.93;;;77.60;2227.20;;;;;;4978697;28;20113;-89
2021/01/09 00:43:17;;;;;;;47.50;29.00;;;77.60;2227.20;;;;;;4978289;28;20125;-88
2021/01/09 00:45:43;;;;;;;51.63;28.20;;;77.60;2227.20;;;;;;4981226;28;20477;-88
2021/01/09 00:48:09;;;;;;;47.97;29.00;;;77.60;2227.20;;;;;;4981419;28;20080;-88
2021/01/09 00:50:34;;;;;;;47.17;27.83;;;77.70;2227.20;;;;;;4981463;28;20129;-88
2021/01/09 00:53:00;;;;;;;49.33;29.73;;;77.60;2227.20;;;;;;4983635;28;20370;-89
2021/01/09 00:55:26;;;;;;;42.83;28.63;;;77.60;2227.20;;;;;;5009828;28;20065;-88
2021/01/09 00:57:51;;;;;;;54.93;30.83;;;77.70;2227.20;;;;;;4999320;28;20021;-86
2021/01/09 01:00:17;;;;;;;51.90;29.33;;;77.60;2227.20;;;;;;5001071;28;20053;-89
2021/01/09 01:02:45;;;;;;;46.47;29.20;;;77.70;2227.20;;;;;;4997225;28;20038;-88
2021/01/09 01:05:11;;;;;;;42.87;26.83;;;77.70;2227.20;;;;;;5001141;28;20050;-86
2021/01/09 01:07:37;;;;;;;45.10;27.20;;;77.70;2227.20;;;;;;5001760;28;20035;-88
2021/01/09 01:10:07;;;;;;;43.60;27.43;;;102.40;2227.20;;;;;;5000932;28;20033;-87
2021/01/09 01:12:32;;;;;;;43.77;27.50;;;77.70;2227.20;;;;;;4997115;28;20014;-88
2021/01/09 01:14:58;;;;;;;49.80;29.00;;;102.40;2227.20;;;;;;4999299;28;20034;-88
2021/01/09 01:17:24;;;;;;;49.33;28.70;;;102.40;2227.20;;;;;;4997468;28;20050;-87
2021/01/09 01:19:49;;;;;;;51.70;29.40;;;102.40;2227.20;;;;;;4995245;28;20042;-86
2021/01/09 01:22:15;;;;;;;44.50;28.20;;;102.40;2227.20;;;;;;4989763;28;20050;-88
2021/01/09 01:24:41;;;;;;;36.73;22.70;;;102.40;2227.20;;;;;;4979321;28;20048;-89
2021/01/09 01:27:06;;;;;;;35.97;22.90;;;102.40;2227.20;;;;;;4978634;28;20034;-89
2021/01/09 01:29:32;;;;;;;33.63;21.80;;;102.40;2227.20;;;;;;4978603;28;20034;-89
2021/01/09 01:31:58;;;;;;;33.23;20.97;;;102.50;2227.20;;;;;;4995109;28;20038;-87
2021/01/09 01:34:24;;;;;;;29.80;18.97;;;102.40;2227.20;;;;;;4978166;28;20035;-88
2021/01/09 01:36:50;;;;;;;38.57;22.37;;;102.40;2227.20;;;;;;4978855;28;20041;-89
2021/01/09 01:39:15;;;;;;;37.17;24.57;;;102.40;2227.20;;;;;;4982240;28;20054;-89
2021/01/09 01:41:42;;;;;;;35.13;22.17;;;102.50;2227.20;;;;;;4982609;28;20038;-89
2021/01/09 01:44:08;;;;;;;38.17;21.57;;;102.40;2227.20;;;;;;4981962;28;20033;-89
2021/01/09 01:46:34;;;;;;;43.17;23.80;;;102.40;2227.20;;;;;;4982345;28;20121;-89
2021/01/09 01:49:00;;;;;;;39.37;22.53;;;102.50;2227.20;;;;;;4981772;28;20054;-89
2021/01/09 01:51:26;;;;;;;38.80;24.57;;;102.50;2227.20;;;;;;4982012;28;20038;-89
2021/01/09 01:53:54;;;;;;;40.13;23.07;;;102.50;2227.20;;;;;;4981831;28;20026;-88
2021/01/09 01:56:23;;;;;;;38.20;24.37;;;102.40;2227.20;;;;;;4981610;28;20026;-88
2021/01/09 01:58:49;;;;;;;43.60;25.73;;;102.40;2227.20;;;;;;4977352;28;20027;-89
2021/01/09 02:01:15;;;;;;;41.53;25.47;;;77.70;2227.20;;;;;;4981596;28;20030;-89
2021/01/09 02:03:41;;;;;;;32.30;21.17;;;77.70;2227.20;;;;;;4980974;28;20042;-89
2021/01/09 02:06:16;;;;;;;38.83;22.30;;;77.70;2227.20;;;;;;4981478;28;20073;-86
2021/01/09 02:08:50;;;;;;;36.27;21.83;;;77.70;2227.20;;;;;;4981700;28;20038;-88
2021/01/09 02:11:39;;;;;;;36.93;22.00;;;77.70;2227.20;;;;;;4981180;28;20440;-89
2021/01/09 02:14:14;;;;;;;40.00;21.73;;;102.40;2227.20;;;;;;4981586;28;20064;-89
2021/01/09 02:16:42;;;;;;;33.47;21.23;;;102.50;2227.20;;;;;;4982327;28;20030;-89
2021/01/09 02:19:10;;;;;;;33.20;20.60;;;102.50;2227.20;;;;;;4980994;28;20039;-88
2021/01/09 02:21:43;;;;;;;39.07;22.47;;;102.50;2227.20;;;;;;4981129;28;20058;-89
2021/01/09 02:24:14;;;;;;;40.90;23.57;;;102.60;2227.20;;;;;;4981137;28;20546;-87
2021/01/09 02:26:41;;;;;;;45.20;25.07;;;102.60;2227.20;;;;;;4982870;28;20121;-89
2021/01/09 02:29:07;;;;;;;39.90;23.43;;;102.60;2227.20;;;;;;4981447;28;20465;-90
2021/01/09 02:31:44;;;;;;;39.40;24.37;;;102.60;2227.20;;;;;;4981339;28;20080;-89
2021/01/09 02:34:12;;;;;;;37.73;23.07;;;102.60;2227.20;;;;;;4980653;28;20019;-88
2021/01/09 02:36:40;;;;;;;40.10;24.03;;;102.70;2227.20;;;;;;4983038;28;20121;-90
2021/01/09 02:39:06;;;;;;;56.33;31.90;;;102.60;2227.20;;;;;;4981866;28;20022;-88
2021/01/09 02:41:35;;;;;;;77.53;39.23;;;102.60;2227.20;;;;;;4980692;28;20507;-89
2021/01/09 02:44:05;;;;;;;65.23;37.07;;;102.60;2227.20;;;;;;4980993;28;20027;-90
2021/01/09 02:46:31;;;;;;;55.33;29.73;;;102.60;2227.20;;;;;;4980906;28;20041;-88
2021/01/09 02:48:57;;;;;;;41.97;24.97;;;102.60;2227.20;;;;;;4980213;28;20022;-89
2021/01/09 02:51:22;;;;;;;44.63;27.33;;;102.50;2227.20;;;;;;4980814;28;20416;-90
2021/01/09 02:53:49;;;;;;;50.67;29.20;;;102.50;2227.20;;;;;;4980907;28;20469;-87
2021/01/09 02:56:14;;;;;;;48.37;30.20;;;102.50;2227.20;;;;;;4980684;28;20054;-88
2021/01/09 02:58:40;;;;;;;44.70;26.10;;;102.60;2227.20;;;;;;4980726;28;20499;-90
2021/01/09 03:01:06;;;;;;;50.53;31.27;;;102.50;2227.20;;;;;;4980595;28;20444;-89
2021/01/09 03:03:31;;;;;;;35.30;21.80;;;102.40;2227.20;;;;;;4980545;28;20030;-86
2021/01/09 03:05:57;;;;;;;42.00;23.67;;;102.40;2227.20;;;;;;4980444;28;20022;-89
2021/01/09 03:08:23;;;;;;;39.93;23.03;;;102.50;2227.20;;;;;;4981652;28;20057;-90
2021/01/09 03:10:49;;;;;;;32.90;20.93;;;102.50;2227.20;;;;;;4998131;28;20034;-88
2021/01/09 03:13:16;;;;;;;38.37;23.10;;;102.40;2227.20;;;;;;4997380;28;20550;-88
2021/01/09 03:15:41;;;;;;;31.90;19.37;;;102.50;2227.20;;;;;;4980608;28;20121;-90
2021/01/09 03:18:07;;;;;;;31.17;18.33;;;102.40;2227.20;;;;;;4980089;28;20370;-90
2021/01/09 03:20:32;;;;;;;32.87;19.23;;;102.50;2227.20;;;;;;4979711;28;20041;-86
2021/01/09 03:22:58;;;;;;;33.00;18.93;;;102.50;2227.20;;;;;;4976612;28;20063;-89
2021/01/09 03:25:24;;;;;;;35.13;20.17;;;102.50;2227.20;;;;;;4976966;28;20034;-89
2021/01/09 03:27:49;;;;;;;33.83;19.80;;;102.60;2227.20;;;;;;4976783;28;20121;-89
2021/01/09 03:30:16;;;;;;;33.40;19.97;;;102.70;2227.20;;;;;;4977127;28;20023;-89
2021/01/09 03:32:41;;;;;;;32.30;19.40;;;102.60;2227.20;;;;;;4976654;28;20033;-88
2021/01/09 03:35:07;;;;;;;37.10;22.53;;;102.70;2227.20;;;;;;4976545;28;20110;-87
2021/01/09 03:37:33;;;;;;;40.73;23.80;;;102.70;2227.20;;;;;;4976563;28;20031;-90
2021/01/09 03:39:59;;;;;;;43.23;28.07;;;102.70;2227.20;;;;;;4976853;28;20031;-88
2021/01/09 03:42:24;;;;;;;41.90;26.70;;;102.70;2227.20;;;;;;4976942;28;20045;-90
2021/01/09 03:44:50;;;;;;;46.20;24.67;;;102.60;2227.20;;;;;;4976591;28;20117;-90
2021/01/09 03:47:16;;;;;;;48.40;27.33;;;102.60;2227.20;;;;;;4976432;28;20122;-90
2021/01/09 03:49:41;;;;;;;49.50;27.03;;;102.60;2227.20;;;;;;4977272;28;20035;-89
2021/01/09 03:52:07;;;;;;;41.37;24.73;;;102.60;2227.20;;;;;;4976340;28;20042;-90
2021/01/09 03:54:33;;;;;;;43.03;26.30;;;102.60;2227.20;;;;;;4975788;28;20038;-90
2021/01/09 03:56:58;;;;;;;37.73;22.63;;;102.60;2227.20;;;;;;4978289;28;20046;-88
2021/01/09 03:59:24;;;;;;;42.40;24.20;;;102.60;2227.20;;;;;;4975381;28;20118;-86
2021/01/09 04:01:50;;;;;;;73.43;40.43;;;102.60;2227.20;;;;;;4975924;28;20039;-89
2021/01/09 04:04:15;;;;;;;57.17;32.90;;;102.60;2227.20;;;;;;4975911;28;20044;-90
2021/01/09 04:06:41;;;;;;;49.53;28.80;;;102.50;2227.20;;;;;;4975924;28;20034;-88
2021/01/09 04:09:06;;;;;;;50.03;28.33;;;102.60;2227.20;;;;;;4976785;28;20536;-89
2021/01/09 04:11:32;;;;;;;47.93;30.67;;;102.60;2227.20;;;;;;4976754;28;20107;-90
2021/01/09 04:13:58;;;;;;;52.73;29.23;;;102.60;2227.20;;;;;;4976483;28;20027;-89
2021/01/09 04:16:24;;;;;;;51.63;29.73;;;102.60;2227.20;;;;;;4975776;28;20037;-90
2021/01/09 04:18:49;;;;;;;49.40;28.70;;;102.60;2227.20;;;;;;4975420;28;20038;-90
2021/01/09 04:21:15;;;;;;;50.77;28.47;;;102.60;2227.20;;;;;;4975493;28;20102;-89
2021/01/09 04:23:40;;;;;;;46.30;29.73;;;102.60;2227.20;;;;;;4978277;28;20114;-89
2021/01/09 04:26:12;;;;;;;52.20;29.33;;;102.70;2227.20;;;;;;4976101;28;20039;-90
2021/01/09 04:28:38;;;;;;;48.50;30.97;;;102.70;2227.20;;;;;;4975444;28;20039;-89
2021/01/09 04:31:04;;;;;;;51.40;29.67;;;102.70;2227.20;;;;;;4976133;28;20445;-90
2021/01/09 04:33:29;;;;;;;51.17;30.73;;;102.70;2227.20;;;;;;4975393;28;20027;-90
2021/01/09 04:35:55;;;;;;;55.33;31.83;;;102.70;2227.20;;;;;;4975314;28;20022;-88
2021/01/09 04:38:21;;;;;;;52.27;30.83;;;102.70;2227.20;;;;;;4975476;28;20038;-89
2021/01/09 04:40:47;;;;;;;46.67;29.83;;;102.70;2227.20;;;;;;4975418;28;20465;-90
2021/01/09 04:43:13;;;;;;;47.77;28.73;;;102.70;2227.20;;;;;;4975221;28;20050;-89
2021/01/09 04:45:38;;;;;;;46.57;30.50;;;102.70;2227.20;;;;;;4979192;28;20090;-87
2021/01/09 04:48:05;;;;;;;49.80;30.57;;;102.80;2227.20;;;;;;4974917;28;20051;-91
2021/01/09 04:50:32;;;;;;;46.97;28.07;;;102.70;2227.20;;;;;;4975130;28;20050;-92
2021/01/09 04:52:59;;;;;;;49.33;29.57;;;102.70;2227.20;;;;;;4975431;28;20042;-87
2021/01/09 04:55:27;;;;;;;46.47;29.13;;;102.80;2227.20;;;;;;4975925;28;20046;-90
2021/01/09 04:57:53;;;;;;;44.50;27.53;;;102.70;2227.20;;;;;;4975738;28;20085;-89
2021/01/09 05:00:20;;;;;;;49.53;29.07;;;102.70;2227.20;;;;;;4975919;28;20022;-89
2021/01/09 05:02:46;;;;;;;44.20;28.30;;;102.70;2227.20;;;;;;4975140;28;20031;-89
2021/01/09 05:05:12;;;;;;;50.63;30.47;;;102.70;2227.20;;;;;;4975163;28;20031;-89
2021/01/09 05:07:38;;;;;;;52.87;30.47;;;102.70;2227.20;;;;;;4975226;28;20054;-90
2021/01/09 05:10:04;;;;;;;70.90;43.67;;;102.70;2227.20;;;;;;4975755;28;20469;-91
2021/01/09 05:12:35;;;;;;;74.37;42.53;;;102.50;2227.20;;;;;;4973074;28;20039;-90
2021/01/09 05:15:02;;;;;;;67.47;37.73;;;102.50;2227.20;;;;;;4975257;28;20477;-89
2021/01/09 05:17:28;;;;;;;65.40;35.77;;;102.50;2227.20;;;;;;4974821;28;20027;-88
2021/01/09 05:19:54;;;;;;;59.27;34.83;;;102.50;2227.20;;;;;;4974572;28;20023;-89
2021/01/09 05:22:20;;;;;;;59.30;36.33;;;102.50;2227.20;;;;;;4974564;28;20055;-89
2021/01/09 05:24:52;;;;;;;57.47;33.57;;;102.40;2227.20;;;;;;4975138;28;20027;-87
2021/01/09 05:27:19;;;;;;;52.10;29.98;;;102.40;2227.20;;;;;;4974884;28;20033;-88
2021/01/09 05:29:53;;;;;;;51.67;30.93;;;77.70;2227.20;;;;;;4974749;28;20037;-89
2021/01/09 05:32:20;;;;;;;55.03;31.47;;;77.70;2227.20;;;;;;4974899;28;20078;-89
2021/01/09 05:34:54;;;;;;;52.47;29.47;;;77.60;2227.20;;;;;;4975076;28;20046;-90
2021/01/09 05:37:23;;;;;;;53.70;30.57;;;77.60;2227.20;;;;;;4974528;28;20178;-89
2021/01/09 05:39:50;;;;;;;45.77;25.93;;;77.70;2227.20;;;;;;4975294;28;20031;-87
2021/01/09 05:42:18;;;;;;;47.43;26.97;;;77.70;2227.20;;;;;;4974540;28;20118;-90
2021/01/09 05:44:45;;;;;;;46.80;28.00;;;77.40;2227.20;;;;;;4976714;28;20366;-90
2021/01/09 05:47:11;;;;;;;44.90;26.30;;;77.40;2227.20;;;;;;4977153;28;20033;-90
2021/01/09 05:49:42;;;;;;;42.77;26.30;;;77.50;2227.20;;;;;;4974978;28;20545;-88
2021/01/09 05:52:08;;;;;;;47.40;29.43;;;77.50;2227.20;;;;;;4974563;28;20073;-90
2021/01/09 05:54:36;;;;;;;49.67;31.27;;;77.50;2227.20;;;;;;4975520;28;20027;-89
2021/01/09 05:57:04;;;;;;;51.07;28.70;;;77.60;2227.20;;;;;;4975642;28;20026;-88
2021/01/09 05:59:32;;;;;;;49.13;29.97;;;77.60;2227.20;;;;;;4974383;28;20377;-87
2021/01/09 06:02:00;;;;;;;43.33;26.27;;;77.60;2227.20;;;;;;4974481;28;20043;-86
2021/01/09 06:04:28;;;;;;;45.63;28.50;;;77.60;2227.20;;;;;;4974170;28;20480;-89
2021/01/09 06:07:11;;;;;;;52.83;30.97;;;77.50;2227.20;;;;;;4974385;28;20026;-89
2021/01/09 06:09:52;;;;;;;62.80;34.87;;;77.40;2227.20;;;;;;4974593;28;20019;-89
2021/01/09 06:12:21;;;;;;;52.57;32.90;;;77.40;2227.20;;;;;;4974285;28;20031;-87
2021/01/09 06:14:50;;;;;;;49.43;29.30;;;77.20;2227.20;;;;;;4974260;28;20110;-90
2021/01/09 06:17:17;;;;;;;95.27;50.00;;;77.20;2227.20;;;;;;4974127;28;20027;-88
2021/01/09 06:19:43;;;;;;;55.33;34.93;;;77.30;2227.20;;;;;;4974063;28;20023;-89
2021/01/09 06:22:10;;;;;;;64.03;38.80;;;77.40;2227.20;;;;;;4973901;28;20070;-87
2021/01/09 06:24:36;;;;;;;55.70;33.57;;;77.20;2227.20;;;;;;4977100;28;20035;-90
2021/01/09 06:27:02;;;;;;;53.97;32.97;;;77.40;2227.20;;;;;;4977333;28;20037;-89
2021/01/09 06:29:29;;;;;;;54.93;35.60;;;77.30;2227.20;;;;;;4977985;28;20027;-87
2021/01/09 06:31:58;;;;;;;65.33;40.77;;;77.40;2227.20;;;;;;4977554;28;20027;-88
2021/01/09 06:34:26;;;;;;;57.80;38.57;;;77.40;2227.20;;;;;;4977156;28;20033;-88
2021/01/09 06:37:01;;;;;;;62.23;36.67;;;77.30;2227.20;;;;;;4978006;28;20058;-90
2021/01/09 06:39:35;;;;;;;58.67;36.30;;;77.40;2227.20;;;;;;4977993;28;20086;-88
2021/01/09 06:42:04;;;;;;;65.33;38.63;;;77.30;2227.20;;;;;;4977428;28;20126;-90
2021/01/09 06:44:31;;;;;;;72.20;43.00;;;77.40;2227.20;;;;;;4977708;28;20030;-89
2021/01/09 06:46:57;;;;;;;69.40;41.40;;;77.30;2227.20;;;;;;4977398;28;20077;-89
2021/01/09 06:49:25;;;;;;;63.00;37.73;;;77.30;2227.20;;;;;;4977356;28;20053;-90
2021/01/09 06:51:51;;;;;;;67.23;42.37;;;77.30;2227.20;;;;;;4976673;28;20039;-90
2021/01/09 06:54:42;;;;;;;102.77;64.03;;;77.20;2227.20;;;;;;4977211;28;20031;-88
2021/01/09 06:57:10;;;;;;;66.10;41.37;;;77.20;2227.20;;;;;;4977252;28;20520;-86
2021/01/09 06:59:40;;;;;;;53.37;31.27;;;77.20;2227.20;;;;;;4977179;28;20031;-89
2021/01/09 07:02:16;;;;;;;61.43;37.60;;;77.20;2227.20;;;;;;4976984;28;20508;-89
2021/01/09 07:04:51;;;;;;;61.13;38.17;;;77.20;2227.20;;;;;;4976884;28;20027;-89
2021/01/09 07:07:51;;;;;;;62.50;37.40;;;77.10;2227.20;;;;;;4976968;28;20030;-88
2021/01/09 07:10:20;;;;;;;58.67;39.10;;;77.00;2227.20;;;;;;4977057;28;20117;-88
2021/01/09 07:12:57;;;;;;;70.33;40.13;;;77.10;2227.20;;;;;;4977078;28;20023;-89
2021/01/09 07:15:25;;;;;;;63.33;39.23;;;77.10;2227.20;;;;;;4976886;28;20074;-89
2021/01/09 07:17:57;;;;;;;69.33;43.37;;;77.20;2227.20;;;;;;4976324;28;20058;-90
2021/01/09 07:20:38;;;;;;;65.18;41.97;;;77.10;2227.20;;;;;;4976246;28;20051;-89
2021/01/09 07:23:12;;;;;;;76.07;48.00;;;77.10;2227.20;;;;;;4976513;28;20101;-88
2021/01/09 07:25:40;;;;;;;59.30;39.07;;;77.00;2227.20;;;;;;4976393;28;20110;-85
2021/01/09 07:28:14;;;;;;;58.90;38.10;;;77.00;2227.20;;;;;;4976844;28;20041;-91
2021/01/09 07:30:41;;;;;;;64.13;41.57;;;77.00;2227.20;;;;;;4976580;28;20027;-91
2021/01/09 07:33:11;;;;;;;68.43;39.07;;;77.10;2227.20;;;;;;4976395;28;20037;-91
2021/01/09 07:35:40;;;;;;;69.47;48.30;;;77.20;2227.20;;;;;;4975838;28;20027;-90
2021/01/09 07:38:07;;;;;;;81.63;54.03;;;77.40;2227.20;;;;;;4976551;28;20102;-90
2021/01/09 07:40:43;;;;;;;81.70;50.90;;;77.50;2227.20;;;;;;4976951;28;20027;-91
2021/01/09 07:43:35;;;;;;;79.33;47.73;;;77.70;2227.20;;;;;;4976671;28;20551;-88
2021/01/09 07:46:21;;;;;;;67.28;40.55;;;102.40;2227.20;;;;;;4976434;28;20081;-90
2021/01/09 07:48:47;;;;;;;64.57;40.90;;;102.50;2176.00;;;;;;4976285;28;20034;-91
2021/01/09 07:51:13;;;;;;;73.43;47.03;;;102.70;2176.00;;;;;;4976348;28;20189;-91
2021/01/09 07:53:47;;;;;;;62.30;39.23;;;102.70;2150.40;;;;;;4975489;28;20058;-89
2021/01/09 07:56:36;;;;;;;55.73;33.87;;;102.80;2124.80;;;;;;4976348;28;20038;-91
2021/01/09 07:59:02;;;;;;;48.60;32.80;;;102.80;2124.80;;;;;;4976214;28;20492;-90
2021/01/09 08:01:28;;;;;;;57.77;35.37;;;102.80;2150.40;;;;;;4976462;28;20039;-88
2021/01/09 08:03:55;;;;;;;50.13;34.37;;;102.80;2150.40;;;;;;4976313;28;20031;-91
2021/01/09 08:06:22;;;;;;;68.10;44.97;;;102.90;2124.80;;;;;;4975946;28;20034;-91
2021/01/09 08:08:51;;;;;;;52.90;33.17;;;103.00;2124.80;;;;;;4979899;28;20031;-87
2021/01/09 08:11:16;;;;;;;51.23;34.03;;;103.10;2099.20;;;;;;4980280;28;20027;-89
2021/01/09 08:13:42;;;;;;;45.97;29.60;;;103.00;2124.80;;;;;;4981401;28;20050;-90
2021/01/09 08:16:08;;;;;;;46.80;28.67;;;102.80;2150.40;;;;;;4982568;28;20062;-90
2021/01/09 08:18:33;;;;;;;46.30;27.67;;;102.80;2150.40;;;;;;4989457;28;20026;-91
2021/01/09 08:20:59;;;;;;;40.20;26.27;;;102.60;2176.00;;;;;;4997238;28;20027;-88
2021/01/09 08:23:25;;;;;;;45.37;30.43;;;102.60;2150.40;;;;;;5002162;28;20033;-89
2021/01/09 08:25:51;;;;;;;51.10;29.87;;;102.60;2150.40;;;;;;4997563;28;20049;-89
2021/01/09 08:28:18;;;;;;;44.17;26.53;;;102.60;2150.40;;;;;;5001212;28;20011;-85
2021/01/09 08:30:44;;;;;;;47.53;28.87;;;102.50;2099.20;;;;;;5001159;28;20045;-87
2021/01/09 08:33:15;;;;;;;59.50;36.77;;;102.60;2099.20;;;;;;4997656;28;20674;-87
2021/01/09 08:35:45;;;;;;;44.13;27.47;;;102.50;2150.40;;;;;;4999055;28;20033;-87
2021/01/09 08:38:12;;;;;;;40.10;26.27;;;102.50;2124.80;;;;;;4995591;28;20034;-87
2021/01/09 08:40:38;;;;;;;61.23;38.27;;;102.60;2124.80;;;;;;4996665;28;20022;-88
2021/01/09 08:43:09;;;;;;;55.17;36.00;;;102.70;2124.80;;;;;;4992298;28;20124;-88
2021/01/09 08:45:37;;;;;;;50.97;30.70;;;102.80;2099.20;;;;;;4985908;28;20026;-87
2021/01/09 08:48:04;;;;;;;37.83;22.57;;;102.80;2073.60;;;;;;4978764;28;20038;-84
2021/01/09 08:50:36;;;;;;;36.13;22.40;;;102.60;2099.20;;;;;;4979101;28;20038;-89
2021/01/09 08:53:04;;;;;;;37.03;24.03;;;102.80;2099.20;;;;;;4980460;28;20046;-90
2021/01/09 08:55:30;;;;;;;57.63;33.87;;;102.80;2048.00;;;;;;4979346;28;20275;-88
2021/01/09 08:57:59;;;;;;;43.00;27.37;;;102.90;2048.00;;;;;;4978656;28;20026;-87
2021/01/09 09:00:25;;;;;;;43.30;27.30;;;103.00;2048.00;;;;;;4978283;28;20033;-88
2021/01/09 09:02:52;;;;;;;35.80;21.40;;;103.00;1996.80;;;;;;4977939;28;20042;-87
2021/01/09 09:05:19;;;;;;;36.63;24.73;;;103.00;2022.40;;;;;;4977831;28;20045;-85
2021/01/09 09:07:46;;;;;;;35.77;20.97;;;103.20;2022.40;;;;;;4978245;28;20026;-90
2021/01/09 09:10:14;;;;;;;38.27;24.83;;;103.20;2022.40;;;;;;4995587;28;20026;-91
2021/01/09 09:12:40;;;;;;;45.93;27.67;;;128.00;2022.40;;;;;;4979018;28;20490;-87
2021/01/09 09:15:10;;;;;;;48.83;26.03;;;103.30;1945.60;;;;;;4978370;28;20034;-92
2021/01/09 09:17:37;;;;;;;42.57;24.93;;;103.00;1996.80;;;;;;4979810;28;20026;-95
2021/01/09 09:20:05;;;;;;;35.00;21.00;;;103.10;1971.20;;;;;;4978558;28;20049;-94
2021/01/09 09:22:33;;;;;;;58.23;39.53;;;103.20;1971.20;;;;;;4977031;28;20054;-89
2021/01/09 09:24:59;;;;;;;46.37;33.37;;;103.30;1996.80;;;;;;4978736;28;20031;-87
2021/01/09 09:27:32;;;;;;;39.17;27.07;;;128.10;2022.40;;;;;;4979060;28;20058;-93
2021/01/09 09:30:13;;;;;;;50.83;34.30;;;128.30;1945.60;;;;;;4979000;28;20109;-88
2021/01/09 09:32:43;;;;;;;40.10;24.97;;;128.40;1945.60;;;;;;4978826;28;20073;-90
2021/01/09 09:35:23;;;;;;;34.93;23.33;;;128.60;1920.00;;;;;;4978573;28;20026;-87
2021/01/09 09:37:49;;;;;;;42.67;31.40;;;153.60;1843.20;;;;;;4981928;28;20032;-90
2021/01/09 09:40:32;;;;;;;35.50;25.33;;;153.80;1894.40;;;;;;4982073;28;20053;-93
2021/01/09 09:43:13;;;;;;;52.80;31.52;;;153.80;1868.80;;;;;;4995912;28;20034;-87
2021/01/09 09:45:39;;;;;;;105.00;70.63;;;153.60;1920.00;;;;;;4978332;28;20031;-91
2021/01/09 09:48:06;;;;;;;64.47;43.40;;;128.90;1894.40;;;;;;4978020;28;20027;-91
2021/01/09 09:50:34;;;;;;;49.60;30.87;;;128.70;1920.00;;;;;;4978632;28;20035;-86
2021/01/09 09:53:03;;;;;;;58.63;38.07;;;128.60;1920.00;;;;;;4977938;28;20069;-85
2021/01/09 09:55:34;;;;;;;40.53;22.20;;;128.90;1894.40;;;;;;4977915;28;20033;-90
2021/01/09 09:58:10;;;;;;;35.30;24.80;;;128.80;1817.60;;;;;;4979641;28;20062;-92
2021/01/09 10:00:47;;;;;;;37.33;25.20;;;153.60;1868.80;;;;;;4982064;28;20034;-91
2021/01/09 10:03:13;;;;;;;48.80;33.10;;;128.90;1868.80;;;;;;4982317;28;20037;-86
2021/01/09 10:05:39;;;;;;;45.33;32.17;;;153.70;1920.00;;;;;;4981737;28;20026;-91
2021/01/09 10:08:15;;;;;;;34.93;24.57;;;153.90;1894.40;;;;;;4983409;28;20037;-92
2021/01/09 10:10:42;;;;;;;50.83;38.63;;;154.00;1843.20;;;;;;4984039;28;20022;-88
2021/01/09 10:13:08;;;;;;;46.50;31.13;;;154.20;1868.80;;;;;;4981931;28;20030;-92
2021/01/09 10:15:34;;;;;;;40.83;26.33;;;154.30;1843.20;;;;;;4981543;28;20023;-90
2021/01/09 10:18:01;;;;;;;46.80;34.33;;;179.30;1766.40;;;;;;4980760;28;20038;-89
2021/01/09 10:20:27;;;;;;;41.43;29.97;;;179.70;1715.20;;;;;;4981075;28;20037;-90
2021/01/09 10:22:53;;;;;;;46.03;32.57;;;179.50;1740.80;;;;;;4980965;28;20050;-90
2021/01/09 10:25:19;;;;;;;24.83;15.97;;;179.80;1740.80;;;;;;4981059;28;20380;-87
2021/01/09 10:27:45;;;;;;;43.87;28.37;;;179.80;1664.00;;;;;;4981540;28;20062;-90
2021/01/09 10:30:11;;;;;;;33.83;23.13;;;179.70;1715.20;;;;;;4981697;28;20050;-92
2021/01/09 10:32:37;;;;;;;55.87;36.97;;;179.40;1664.00;;;;;;4998713;28;20042;-89
2021/01/09 10:35:03;;;;;;;39.93;25.93;;;179.40;1715.20;;;;;;4981880;28;20033;-92
2021/01/09 10:37:29;;;;;;;26.23;17.03;;;179.20;1766.40;;;;;;4980946;28;20026;-87
2021/01/09 10:39:54;;;;;;;31.57;18.90;;;179.30;1689.60;;;;;;4980564;28;20604;-87
2021/01/09 10:42:20;;;;;;;33.40;21.93;;;179.20;1689.60;;;;;;4980640;28;20034;-89
2021/01/09 10:44:46;;;;;;;29.30;18.07;;;179.60;1715.20;;;;;;4980906;28;20385;-88
2021/01/09 10:47:12;;;;;;;33.03;19.47;;;179.60;1689.60;;;;;;4981004;28;20030;-92
2021/01/09 10:49:37;;;;;;;24.80;15.20;;;180.10;1920.00;;;;;;4980889;28;20456;-88
2021/01/09 10:52:03;;;;;;;21.20;13.83;;;204.80;1664.00;;;;;;4997997;28;20026;-88
2021/01/09 10:54:29;;;;;;;25.37;15.10;;;179.90;1638.40;;;;;;4980271;28;20034;-88
2021/01/09 10:56:55;;;;;;;27.47;17.30;;;180.00;1612.80;;;;;;4980644;28;20023;-87
2021/01/09 10:59:20;;;;;;;30.67;19.80;;;179.90;1689.60;;;;;;4980547;28;20031;-86
2021/01/09 11:01:47;;;;;;;56.97;38.87;;;179.90;1689.60;;;;;;4980775;28;20117;-89
2021/01/09 11:04:13;;;;;;;203.20;119.37;;;179.90;1766.40;;;;;;4980370;28;20022;-88
2021/01/09 11:06:39;;;;;;;79.50;49.43;;;179.70;1766.40;;;;;;4980420;28;20504;-87
2021/01/09 11:09:05;;;;;;;51.00;28.53;;;179.20;1740.80;;;;;;4997350;28;20372;-89
2021/01/09 11:11:30;;;;;;;38.10;24.97;;;154.50;1766.40;;;;;;4979900;28;20076;-89
2021/01/09 11:13:57;;;;;;;37.33;24.97;;;154.30;1766.40;;;;;;4980351;28;20033;-88
2021/01/09 11:16:44;;;;;;;45.17;31.20;;;153.80;1817.60;;;;;;4980088;28;20026;-89
2021/01/09 11:19:10;;;;;;;35.33;23.70;;;154.00;1766.40;;;;;;4979324;28;20040;-90
2021/01/09 11:21:40;;;;;;;36.80;22.00;;;154.00;1817.60;;;;;;4979943;28;20057;-86
2021/01/09 11:24:06;;;;;;;40.70;26.67;;;153.90;1766.40;;;;;;4979683;28;20050;-87
2021/01/09 11:26:32;;;;;;;39.83;27.67;;;154.00;1740.80;;;;;;4980055;28;20113;-86
2021/01/09 11:28:58;;;;;;;55.80;37.17;;;153.80;1817.60;;;;;;4979901;28;20042;-88
2021/01/09 11:31:25;;;;;;;69.10;40.73;;;153.90;1868.80;;;;;;4979798;28;20373;-87
2021/01/09 11:33:51;;;;;;;96.40;59.60;;;153.70;1817.60;;;;;;4979584;28;20114;-85
2021/01/09 11:36:18;;;;;;;60.20;38.70;;;153.60;1894.40;;;;;;4979732;28;20046;-87
2021/01/09 11:38:44;;;;;;;48.13;29.73;;;128.70;1843.20;;;;;;4979374;28;20026;-86
2021/01/09 11:41:10;;;;;;;73.50;45.20;;;128.90;1843.20;;;;;;4979399;28;20147;-85
2021/01/09 11:43:37;;;;;;;66.60;40.93;;;128.90;1792.00;;;;;;4979589;28;20033;-85
2021/01/09 11:46:05;;;;;;;64.63;40.43;;;153.60;1843.20;;;;;;4996744;28;20026;-86
2021/01/09 11:48:31;;;;;;;68.97;40.97;;;153.70;1843.20;;;;;;4979199;28;20494;-86
2021/01/09 11:50:56;;;;;;;42.63;28.33;;;153.90;1817.60;;;;;;4979306;28;20065;-86
2021/01/09 11:53:22;;;;;;;62.63;40.43;;;153.80;1817.60;;;;;;4979337;28;20036;-86
2021/01/09 11:55:49;;;;;;;91.73;55.80;;;128.80;1894.40;;;;;;4979508;28;20388;-86
2021/01/09 11:58:16;;;;;;;81.20;50.90;;;128.80;1920.00;;;;;;4979356;28;20040;-87
2021/01/09 12:00:42;;;;;;;61.63;40.33;;;153.70;1894.40;;;;;;4979060;28;20088;-88
2021/01/09 12:03:08;;;;;;;66.37;43.30;;;128.80;1894.40;;;;;;4978701;28;20034;-87
2021/01/09 12:05:35;;;;;;;85.30;56.37;;;153.60;1894.40;;;;;;4979250;28;20098;-87